Allen Jay, North Carolina
Current Conditions -  °F | °C
As of 7:54 PM on Monday 24 Nov 2014 (Local Time) from KGSO Reporting Station
Scattered Clouds Scattered Clouds  
Wind Chill: 18°   Ceiling: Unl
Heat Index: 18°   Visibility: 10mi
Dew Point: 14°   Wind: 13mph
Humidity: 80%   Direction: 190°S
Pressure: 29.86"   Gusts: NA
Location:  35.9136°N, 79.9465°W
Report Text: KGSO 250054Z 19011KT 10SM SCT250 18/14 A2986 RMK AO2 SLP106 T01780144
Loading
Personal Weather Stations






























Interactive Weather Map New forecast layout! Learn more

10-Day Weather Forecast

Advertisements
Track Severe Weather on mobile